KFY1953 SBCF-SBPA
Flight info
| Callsign | KFY1953 |
|---|---|
| Flight time | 2h 0m |
| Altitude | 40000 |
| Route | DEUCA UZ21 VUNOX UZ38 VUKMO |
| Aircraft | A359/H-SDE2E3GHIJ3J4J5LM1ORWXY/LB1D1 |
Departure
| Time | 2026-05-06 11:11 |
|---|---|
| Airport | Tancredo Neves International Airport (SBCF) |
Arrival
| Time | 2026-05-06 13:12 |
|---|---|
| Airport | Porto Alegre-Salgado Filho International Airport (SBPA) |
| Time | Latitude | Longitude | Altitude | Speed | Heading |
|---|---|---|---|---|---|
| 2026-05-06 10:57 | -19.63139 | -43.96552 | 2791 ft | 0 kts | 49° |
| 2026-05-06 10:58 | -19.63141 | -43.96555 | 2791 ft | 3 kts | 49° |
| 2026-05-06 10:58 | -19.63159 | -43.96576 | 2790 ft | 4 kts | 49° |
| 2026-05-06 10:58 | -19.63175 | -43.96596 | 2790 ft | 4 kts | 46° |
| 2026-05-06 10:59 | -19.63193 | -43.96608 | 2789 ft | 4 kts | 345° |
| 2026-05-06 10:59 | -19.63214 | -43.96594 | 2786 ft | 4 kts | 318° |
| 2026-05-06 10:59 | -19.63219 | -43.96589 | 2787 ft | 0 kts | 320° |
| 2026-05-06 11:05 | -19.63218 | -43.96590 | 2786 ft | 1 kts | 319° |
| 2026-05-06 11:06 | -19.63205 | -43.96604 | 2786 ft | 5 kts | 319° |
| 2026-05-06 11:06 | -19.63161 | -43.96644 | 2812 ft | 11 kts | 319° |
| 2026-05-06 11:06 | -19.63087 | -43.96711 | 2812 ft | 16 kts | 320° |
| 2026-05-06 11:06 | -19.62996 | -43.96794 | 2812 ft | 18 kts | 319° |
| 2026-05-06 11:07 | -19.62896 | -43.96882 | 2812 ft | 19 kts | 321° |
| 2026-05-06 11:07 | -19.62795 | -43.96978 | 2812 ft | 19 kts | 303° |
| 2026-05-06 11:07 | -19.62832 | -43.97095 | 2813 ft | 17 kts | 246° |
| 2026-05-06 11:07 | -19.62785 | -43.97195 | 2813 ft | 16 kts | 318° |
| 2026-05-06 11:08 | -19.62696 | -43.97279 | 2813 ft | 18 kts | 317° |
| 2026-05-06 11:08 | -19.62600 | -43.97368 | 2812 ft | 19 kts | 319° |
| 2026-05-06 11:08 | -19.62496 | -43.97465 | 2812 ft | 20 kts | 320° |
| 2026-05-06 11:08 | -19.62384 | -43.97563 | 2812 ft | 22 kts | 320° |
| 2026-05-06 11:09 | -19.62292 | -43.97656 | 2812 ft | 14 kts | 293° |
| 2026-05-06 11:09 | -19.62327 | -43.97751 | 2812 ft | 15 kts | 234° |
| 2026-05-06 11:09 | -19.62410 | -43.97764 | 2811 ft | 12 kts | 140° |
| 2026-05-06 11:09 | -19.62415 | -43.97759 | 2811 ft | 0 kts | 135° |
| 2026-05-06 11:10 | -19.62423 | -43.97750 | 2810 ft | 13 kts | 135° |
| 2026-05-06 11:10 | -19.62680 | -43.97513 | 2808 ft | 83 kts | 140° |
| 2026-05-06 11:10 | -19.63268 | -43.96974 | 2810 ft | 139 kts | 139° |
| 2026-05-06 11:11 | -19.64109 | -43.96213 | 3077 ft | 167 kts | 140° |
| 2026-05-06 11:11 | -19.64982 | -43.95432 | 3797 ft | 161 kts | 138° |
| 2026-05-06 11:11 | -19.65859 | -43.94609 | 4266 ft | 181 kts | 136° |
| 2026-05-06 11:11 | -19.66870 | -43.93657 | 4594 ft | 205 kts | 136° |
| 2026-05-06 11:12 | -19.67970 | -43.92644 | 5312 ft | 211 kts | 137° |
| 2026-05-06 11:12 | -19.69234 | -43.91818 | 6075 ft | 220 kts | 156° |
| 2026-05-06 11:12 | -19.70788 | -43.91696 | 6803 ft | 234 kts | 188° |
| 2026-05-06 11:12 | -19.72217 | -43.92523 | 7478 ft | 246 kts | 223° |
| 2026-05-06 11:13 | -19.73262 | -43.93968 | 8213 ft | 249 kts | 235° |
| 2026-05-06 11:13 | -19.74204 | -43.95517 | 8949 ft | 251 kts | 236° |
| 2026-05-06 11:13 | -19.75063 | -43.97136 | 9658 ft | 255 kts | 248° |
| 2026-05-06 11:13 | -19.75417 | -43.99004 | 10283 ft | 267 kts | 266° |
| 2026-05-06 11:14 | -19.75515 | -44.01062 | 10618 ft | 291 kts | 266° |
| 2026-05-06 11:14 | -19.75606 | -44.03296 | 10945 ft | 314 kts | 266° |
| 2026-05-06 11:14 | -19.75704 | -44.05685 | 11262 ft | 336 kts | 266° |
| 2026-05-06 11:14 | -19.75810 | -44.08239 | 11548 ft | 356 kts | 266° |
| 2026-05-06 11:15 | -19.75915 | -44.10925 | 11963 ft | 370 kts | 267° |
| 2026-05-06 11:15 | -19.76019 | -44.13678 | 12579 ft | 376 kts | 267° |
| 2026-05-06 11:15 | -19.76122 | -44.16441 | 13219 ft | 381 kts | 267° |
| 2026-05-06 11:15 | -19.76230 | -44.19304 | 13878 ft | 385 kts | 267° |
| 2026-05-06 11:16 | -19.76335 | -44.22129 | 14455 ft | 389 kts | 267° |
| 2026-05-06 11:16 | -19.76434 | -44.25013 | 14993 ft | 393 kts | 267° |
| 2026-05-06 11:16 | -19.76531 | -44.27927 | 15561 ft | 396 kts | 267° |
| 2026-05-06 11:16 | -19.76630 | -44.30862 | 16122 ft | 399 kts | 266° |
| 2026-05-06 11:17 | -19.76746 | -44.33813 | 16684 ft | 402 kts | 266° |
| 2026-05-06 11:17 | -19.76884 | -44.36795 | 17240 ft | 405 kts | 264° |
| 2026-05-06 11:17 | -19.77368 | -44.39758 | 17808 ft | 407 kts | 251° |
| 2026-05-06 11:17 | -19.78548 | -44.42482 | 18366 ft | 408 kts | 235° |
| 2026-05-06 11:18 | -19.80398 | -44.44763 | 18866 ft | 408 kts | 219° |
| 2026-05-06 11:18 | -19.82744 | -44.46438 | 19384 ft | 408 kts | 206° |
| 2026-05-06 11:18 | -19.85254 | -44.47789 | 19873 ft | 410 kts | 204° |
| 2026-05-06 11:18 | -19.87819 | -44.49128 | 20416 ft | 411 kts | 204° |
| 2026-05-06 11:19 | -19.90392 | -44.50482 | 20974 ft | 414 kts | 204° |
| 2026-05-06 11:19 | -19.92976 | -44.51851 | 21514 ft | 416 kts | 204° |
| 2026-05-06 11:19 | -19.95564 | -44.53228 | 22098 ft | 417 kts | 204° |
| 2026-05-06 11:19 | -19.98166 | -44.54617 | 22661 ft | 419 kts | 204° |
| 2026-05-06 11:20 | -20.00784 | -44.56016 | 23227 ft | 421 kts | 204° |
| 2026-05-06 11:20 | -20.03408 | -44.57419 | 23803 ft | 423 kts | 204° |
| 2026-05-06 11:20 | -20.06054 | -44.58836 | 24311 ft | 425 kts | 204° |
| 2026-05-06 11:20 | -20.08706 | -44.60247 | 24874 ft | 426 kts | 204° |
| 2026-05-06 11:21 | -20.11430 | -44.61501 | 25444 ft | 426 kts | 200° |
| 2026-05-06 11:21 | -20.14202 | -44.62651 | 26029 ft | 427 kts | 199° |
| 2026-05-06 11:21 | -20.16938 | -44.63772 | 26608 ft | 427 kts | 199° |
| 2026-05-06 11:21 | -20.19715 | -44.64910 | 27190 ft | 428 kts | 199° |
| 2026-05-06 11:22 | -20.22505 | -44.66055 | 27751 ft | 429 kts | 199° |
| 2026-05-06 11:22 | -20.25300 | -44.67204 | 28325 ft | 430 kts | 199° |
| 2026-05-06 11:22 | -20.28104 | -44.68357 | 28889 ft | 431 kts | 200° |
| 2026-05-06 11:22 | -20.30910 | -44.69512 | 29406 ft | 433 kts | 200° |
| 2026-05-06 11:23 | -20.33727 | -44.70672 | 29904 ft | 435 kts | 200° |
| 2026-05-06 11:23 | -20.36554 | -44.71837 | 30391 ft | 437 kts | 200° |
| 2026-05-06 11:23 | -20.39397 | -44.73009 | 30805 ft | 438 kts | 200° |
| 2026-05-06 11:23 | -20.42243 | -44.74182 | 31182 ft | 440 kts | 200° |
| 2026-05-06 11:24 | -20.45071 | -44.75349 | 31546 ft | 442 kts | 200° |
| 2026-05-06 11:24 | -20.47909 | -44.76610 | 31892 ft | 443 kts | 204° |
| 2026-05-06 11:24 | -20.50594 | -44.78243 | 32246 ft | 445 kts | 211° |
| 2026-05-06 11:24 | -20.53163 | -44.80104 | 32590 ft | 447 kts | 212° |
| 2026-05-06 11:25 | -20.55703 | -44.82031 | 32933 ft | 448 kts | 213° |
| 2026-05-06 11:25 | -20.58209 | -44.83983 | 33459 ft | 445 kts | 214° |
| 2026-05-06 11:25 | -20.60688 | -44.85934 | 33995 ft | 441 kts | 214° |
| 2026-05-06 11:25 | -20.63161 | -44.87882 | 34474 ft | 438 kts | 213° |
| 2026-05-06 11:26 | -20.65602 | -44.89802 | 34890 ft | 435 kts | 213° |
| 2026-05-06 11:26 | -20.68029 | -44.91707 | 35328 ft | 431 kts | 213° |
| 2026-05-06 11:26 | -20.70446 | -44.93601 | 35793 ft | 427 kts | 213° |
| 2026-05-06 11:26 | -20.72835 | -44.95471 | 36211 ft | 424 kts | 213° |
| 2026-05-06 11:27 | -20.75203 | -44.97326 | 36626 ft | 421 kts | 213° |
| 2026-05-06 11:27 | -20.77523 | -44.99151 | 36990 ft | 418 kts | 213° |
| 2026-05-06 11:27 | -20.79861 | -45.00991 | 37339 ft | 416 kts | 213° |
| 2026-05-06 11:27 | -20.82179 | -45.02815 | 37695 ft | 413 kts | 213° |
| 2026-05-06 11:28 | -20.84483 | -45.04630 | 38063 ft | 410 kts | 213° |
| 2026-05-06 11:28 | -20.86775 | -45.06437 | 38389 ft | 408 kts | 213° |
| 2026-05-06 11:28 | -20.89062 | -45.08241 | 38722 ft | 406 kts | 213° |
| 2026-05-06 11:28 | -20.91330 | -45.10034 | 39010 ft | 404 kts | 213° |
| 2026-05-06 11:29 | -20.93585 | -45.11815 | 39206 ft | 402 kts | 212° |
| 2026-05-06 11:29 | -20.95864 | -45.13561 | 39335 ft | 403 kts | 210° |
| 2026-05-06 11:29 | -20.98161 | -45.15273 | 39403 ft | 404 kts | 210° |
| 2026-05-06 11:30 | -21.02753 | -45.18742 | 39607 ft | 404 kts | 211° |
| 2026-05-06 11:30 | -21.05030 | -45.20507 | 39747 ft | 403 kts | 211° |
| 2026-05-06 11:30 | -21.07285 | -45.22277 | 39940 ft | 401 kts | 212° |
| 2026-05-06 11:30 | -21.09532 | -45.24050 | 40045 ft | 401 kts | 212° |
| 2026-05-06 11:31 | -21.11772 | -45.25824 | 40129 ft | 401 kts | 212° |
| 2026-05-06 11:31 | -21.16276 | -45.29393 | 40254 ft | 402 kts | 212° |
| 2026-05-06 11:32 | -21.20745 | -45.32931 | 40254 ft | 402 kts | 212° |
| 2026-05-06 11:32 | -21.25244 | -45.36493 | 40251 ft | 402 kts | 212° |
| 2026-05-06 11:33 | -21.29737 | -45.40051 | 40248 ft | 401 kts | 212° |
| 2026-05-06 11:33 | -21.34225 | -45.43608 | 40249 ft | 400 kts | 212° |
| 2026-05-06 11:34 | -21.38621 | -45.47282 | 40249 ft | 400 kts | 217° |
| 2026-05-06 11:34 | -21.42961 | -45.51009 | 40251 ft | 399 kts | 216° |
| 2026-05-06 11:35 | -21.47373 | -45.54621 | 40244 ft | 399 kts | 215° |
| 2026-05-06 11:35 | -21.51805 | -45.58151 | 40246 ft | 398 kts | 215° |
| 2026-05-06 11:36 | -21.56287 | -45.61659 | 40252 ft | 398 kts | 214° |
| 2026-05-06 11:36 | -21.60758 | -45.65149 | 40257 ft | 398 kts | 214° |
| 2026-05-06 11:37 | -21.65228 | -45.68654 | 40250 ft | 397 kts | 215° |
| 2026-05-06 11:37 | -21.69692 | -45.72165 | 40253 ft | 397 kts | 215° |
| 2026-05-06 11:38 | -21.74156 | -45.75681 | 40254 ft | 397 kts | 215° |
| 2026-05-06 11:38 | -21.78589 | -45.79175 | 40252 ft | 397 kts | 215° |
| 2026-05-06 11:39 | -21.83042 | -45.82687 | 40256 ft | 396 kts | 215° |
| 2026-05-06 11:39 | -21.87493 | -45.86199 | 40256 ft | 396 kts | 215° |
| 2026-05-06 11:40 | -21.91941 | -45.89710 | 40265 ft | 396 kts | 215° |
| 2026-05-06 11:40 | -21.96390 | -45.93228 | 40262 ft | 396 kts | 215° |
| 2026-05-06 11:41 | -22.00827 | -45.96740 | 40262 ft | 395 kts | 215° |
| 2026-05-06 11:41 | -22.04515 | -45.99659 | 40265 ft | 395 kts | 215° |
| 2026-05-06 11:42 | -22.08947 | -46.03171 | 40264 ft | 395 kts | 215° |
| 2026-05-06 11:42 | -22.13372 | -46.06680 | 40259 ft | 395 kts | 215° |
| 2026-05-06 11:43 | -22.17802 | -46.10199 | 40262 ft | 395 kts | 215° |
| 2026-05-06 11:43 | -22.22201 | -46.13696 | 40262 ft | 394 kts | 215° |
| 2026-05-06 11:44 | -22.28858 | -46.18985 | 40259 ft | 394 kts | 215° |
| 2026-05-06 11:44 | -22.33506 | -46.22051 | 40262 ft | 395 kts | 206° |
| 2026-05-06 11:45 | -22.38507 | -46.24526 | 40261 ft | 396 kts | 205° |
| 2026-05-06 11:45 | -22.43553 | -46.26899 | 40254 ft | 395 kts | 205° |
| 2026-05-06 11:46 | -22.48599 | -46.29265 | 40255 ft | 395 kts | 205° |
| 2026-05-06 11:46 | -22.53645 | -46.31645 | 40260 ft | 395 kts | 205° |
| 2026-05-06 11:47 | -22.58684 | -46.34024 | 40248 ft | 395 kts | 205° |
| 2026-05-06 11:47 | -22.63722 | -46.36409 | 40247 ft | 395 kts | 205° |
| 2026-05-06 11:48 | -22.68762 | -46.38796 | 40249 ft | 395 kts | 205° |
| 2026-05-06 11:48 | -22.73806 | -46.41189 | 40249 ft | 395 kts | 205° |
| 2026-05-06 11:49 | -22.78817 | -46.43569 | 40250 ft | 395 kts | 205° |
| 2026-05-06 11:49 | -22.83858 | -46.45964 | 40250 ft | 395 kts | 205° |
| 2026-05-06 11:50 | -22.88895 | -46.48357 | 40250 ft | 395 kts | 205° |
| 2026-05-06 11:50 | -22.93933 | -46.50754 | 40245 ft | 395 kts | 205° |
| 2026-05-06 11:51 | -22.98977 | -46.53157 | 40251 ft | 395 kts | 205° |
| 2026-05-06 11:51 | -23.04012 | -46.55558 | 40249 ft | 395 kts | 205° |
| 2026-05-06 11:52 | -23.09015 | -46.57945 | 40255 ft | 395 kts | 206° |
| 2026-05-06 11:52 | -23.14056 | -46.60349 | 40246 ft | 395 kts | 206° |
| 2026-05-06 11:53 | -23.19088 | -46.62753 | 40248 ft | 395 kts | 206° |
| 2026-05-06 11:53 | -23.24124 | -46.65160 | 40265 ft | 395 kts | 206° |
| 2026-05-06 11:54 | -23.29153 | -46.67568 | 40273 ft | 395 kts | 206° |
| 2026-05-06 11:54 | -23.34182 | -46.69980 | 40277 ft | 395 kts | 206° |
| 2026-05-06 11:55 | -23.39190 | -46.72385 | 40283 ft | 395 kts | 206° |
| 2026-05-06 11:55 | -23.44258 | -46.74822 | 40286 ft | 395 kts | 206° |
| 2026-05-06 11:56 | -23.49254 | -46.77225 | 40287 ft | 395 kts | 206° |
| 2026-05-06 11:56 | -23.54284 | -46.79646 | 40281 ft | 395 kts | 206° |
| 2026-05-06 11:57 | -23.59345 | -46.82076 | 40299 ft | 395 kts | 206° |
| 2026-05-06 11:57 | -23.64345 | -46.84475 | 40301 ft | 395 kts | 206° |
| 2026-05-06 11:58 | -23.69379 | -46.86894 | 40281 ft | 395 kts | 206° |
| 2026-05-06 11:58 | -23.74407 | -46.89315 | 40236 ft | 395 kts | 206° |
| 2026-05-06 11:59 | -23.79442 | -46.91749 | 40236 ft | 395 kts | 206° |
| 2026-05-06 11:59 | -23.84475 | -46.94179 | 40236 ft | 395 kts | 206° |
| 2026-05-06 12:00 | -23.89504 | -46.96611 | 40230 ft | 395 kts | 206° |
| 2026-05-06 12:00 | -23.94535 | -46.99046 | 40229 ft | 395 kts | 206° |
| 2026-05-06 12:01 | -23.99528 | -47.01466 | 40219 ft | 395 kts | 206° |
| 2026-05-06 12:01 | -24.04552 | -47.03902 | 40219 ft | 395 kts | 206° |
| 2026-05-06 12:02 | -24.09580 | -47.06343 | 40212 ft | 395 kts | 206° |
| 2026-05-06 12:02 | -24.14610 | -47.08787 | 40211 ft | 395 kts | 206° |
| 2026-05-06 12:03 | -24.19634 | -47.11230 | 40210 ft | 395 kts | 206° |
| 2026-05-06 12:03 | -24.24644 | -47.13681 | 40199 ft | 394 kts | 208° |
| 2026-05-06 12:04 | -24.29407 | -47.16663 | 40200 ft | 393 kts | 213° |
| 2026-05-06 12:04 | -24.34017 | -47.19827 | 40187 ft | 393 kts | 214° |
| 2026-05-06 12:05 | -24.38633 | -47.23045 | 40203 ft | 394 kts | 214° |
| 2026-05-06 12:05 | -24.43256 | -47.26272 | 40198 ft | 393 kts | 214° |
| 2026-05-06 12:06 | -24.47885 | -47.29498 | 40195 ft | 393 kts | 214° |
| 2026-05-06 12:06 | -24.52480 | -47.32699 | 40195 ft | 393 kts | 214° |
| 2026-05-06 12:07 | -24.57101 | -47.35920 | 40194 ft | 393 kts | 214° |
| 2026-05-06 12:07 | -24.61733 | -47.39152 | 40192 ft | 393 kts | 214° |
| 2026-05-06 12:08 | -24.66361 | -47.42384 | 40195 ft | 393 kts | 214° |
| 2026-05-06 12:08 | -24.70980 | -47.45612 | 40192 ft | 393 kts | 214° |
| 2026-05-06 12:09 | -24.75565 | -47.48820 | 40192 ft | 393 kts | 214° |
| 2026-05-06 12:09 | -24.80181 | -47.52053 | 40192 ft | 393 kts | 214° |
| 2026-05-06 12:10 | -24.84797 | -47.55289 | 40192 ft | 393 kts | 214° |
| 2026-05-06 12:10 | -24.89411 | -47.58526 | 40192 ft | 393 kts | 214° |
| 2026-05-06 12:11 | -24.94024 | -47.61765 | 40192 ft | 393 kts | 214° |
| 2026-05-06 12:11 | -24.98644 | -47.65012 | 40192 ft | 393 kts | 214° |
| 2026-05-06 12:12 | -25.03258 | -47.68257 | 40192 ft | 393 kts | 214° |
| 2026-05-06 12:12 | -25.07836 | -47.71480 | 40193 ft | 393 kts | 214° |
| 2026-05-06 12:13 | -25.12449 | -47.74731 | 40201 ft | 393 kts | 214° |
| 2026-05-06 12:13 | -25.17067 | -47.77988 | 40202 ft | 393 kts | 214° |
| 2026-05-06 12:14 | -25.21678 | -47.81244 | 40198 ft | 393 kts | 214° |
| 2026-05-06 12:14 | -25.26292 | -47.84504 | 40196 ft | 393 kts | 214° |
| 2026-05-06 12:15 | -25.30911 | -47.87771 | 40192 ft | 393 kts | 215° |
| 2026-05-06 12:15 | -25.35527 | -47.91041 | 40195 ft | 393 kts | 215° |
| 2026-05-06 12:16 | -25.40136 | -47.94310 | 40196 ft | 393 kts | 215° |
| 2026-05-06 12:16 | -25.44717 | -47.97560 | 40201 ft | 393 kts | 215° |
| 2026-05-06 12:17 | -25.49324 | -48.00833 | 40202 ft | 393 kts | 215° |
| 2026-05-06 12:17 | -25.53931 | -48.04109 | 40190 ft | 393 kts | 215° |
| 2026-05-06 12:18 | -25.58542 | -48.07391 | 40184 ft | 393 kts | 215° |
| 2026-05-06 12:18 | -25.63140 | -48.10666 | 40184 ft | 393 kts | 215° |
| 2026-05-06 12:19 | -25.67751 | -48.13949 | 40184 ft | 393 kts | 215° |
| 2026-05-06 12:19 | -25.72365 | -48.17230 | 40185 ft | 393 kts | 215° |
| 2026-05-06 12:20 | -25.76947 | -48.20492 | 40194 ft | 393 kts | 215° |
| 2026-05-06 12:20 | -25.81555 | -48.23777 | 40193 ft | 393 kts | 215° |
| 2026-05-06 12:21 | -25.86162 | -48.27066 | 40190 ft | 393 kts | 216° |
| 2026-05-06 12:21 | -25.90758 | -48.30349 | 40194 ft | 393 kts | 216° |
| 2026-05-06 12:22 | -25.95357 | -48.33638 | 40190 ft | 392 kts | 216° |
| 2026-05-06 12:22 | -25.99942 | -48.36920 | 40190 ft | 393 kts | 216° |
| 2026-05-06 12:23 | -26.04537 | -48.40212 | 40206 ft | 393 kts | 216° |
| 2026-05-06 12:23 | -26.09129 | -48.43505 | 40192 ft | 392 kts | 216° |
| 2026-05-06 12:24 | -26.12941 | -48.46240 | 40191 ft | 392 kts | 216° |
| 2026-05-06 12:24 | -26.18269 | -48.50069 | 40192 ft | 392 kts | 216° |
| 2026-05-06 12:25 | -26.22088 | -48.52815 | 40191 ft | 392 kts | 216° |
| 2026-05-06 12:25 | -26.26677 | -48.56118 | 40193 ft | 392 kts | 216° |
| 2026-05-06 12:26 | -26.31257 | -48.59414 | 40193 ft | 392 kts | 216° |
| 2026-05-06 12:26 | -26.35841 | -48.62724 | 40208 ft | 392 kts | 216° |
| 2026-05-06 12:27 | -26.40414 | -48.66030 | 40197 ft | 392 kts | 216° |
| 2026-05-06 12:27 | -26.44989 | -48.69339 | 40195 ft | 391 kts | 216° |
| 2026-05-06 12:28 | -26.49532 | -48.72644 | 40195 ft | 391 kts | 216° |
| 2026-05-06 12:28 | -26.54077 | -48.75997 | 40195 ft | 391 kts | 217° |
| 2026-05-06 12:29 | -26.58612 | -48.79350 | 40197 ft | 391 kts | 217° |
| 2026-05-06 12:29 | -26.63156 | -48.82707 | 40197 ft | 391 kts | 217° |
| 2026-05-06 12:30 | -26.67693 | -48.86061 | 40202 ft | 391 kts | 217° |
| 2026-05-06 12:30 | -26.72252 | -48.89399 | 40202 ft | 391 kts | 216° |
| 2026-05-06 12:31 | -26.76813 | -48.92716 | 40195 ft | 391 kts | 216° |
| 2026-05-06 12:31 | -26.81370 | -48.96039 | 40199 ft | 391 kts | 216° |
| 2026-05-06 12:32 | -26.85923 | -48.99369 | 40195 ft | 391 kts | 216° |
| 2026-05-06 12:32 | -26.90475 | -49.02705 | 40200 ft | 391 kts | 216° |
| 2026-05-06 12:33 | -26.95046 | -49.06057 | 40201 ft | 391 kts | 216° |
| 2026-05-06 12:33 | -26.99593 | -49.09396 | 40196 ft | 391 kts | 216° |
| 2026-05-06 12:34 | -27.04154 | -49.12747 | 40209 ft | 392 kts | 216° |
| 2026-05-06 12:34 | -27.08687 | -49.16082 | 40207 ft | 392 kts | 216° |
| 2026-05-06 12:35 | -27.13253 | -49.19444 | 40209 ft | 392 kts | 216° |
| 2026-05-06 12:35 | -27.17822 | -49.22810 | 40210 ft | 392 kts | 216° |
| 2026-05-06 12:36 | -27.22388 | -49.26178 | 40217 ft | 392 kts | 216° |
| 2026-05-06 12:36 | -27.26949 | -49.29545 | 40215 ft | 392 kts | 216° |
| 2026-05-06 12:37 | -27.31489 | -49.32901 | 40222 ft | 392 kts | 217° |
| 2026-05-06 12:37 | -27.36036 | -49.36266 | 40224 ft | 391 kts | 217° |
| 2026-05-06 12:38 | -27.40592 | -49.39644 | 40230 ft | 392 kts | 217° |
| 2026-05-06 12:38 | -27.45155 | -49.43025 | 40228 ft | 392 kts | 217° |
| 2026-05-06 12:39 | -27.49724 | -49.46415 | 40234 ft | 393 kts | 217° |
| 2026-05-06 12:39 | -27.54281 | -49.49799 | 40236 ft | 393 kts | 217° |
| 2026-05-06 12:40 | -27.58824 | -49.53175 | 40252 ft | 393 kts | 217° |
| 2026-05-06 12:40 | -27.63382 | -49.56551 | 40241 ft | 391 kts | 217° |
| 2026-05-06 12:41 | -27.67946 | -49.59934 | 40241 ft | 391 kts | 217° |
| 2026-05-06 12:41 | -27.72496 | -49.63313 | 40227 ft | 391 kts | 217° |
| 2026-05-06 12:42 | -27.77324 | -49.66244 | 40248 ft | 395 kts | 210° |
| 2026-05-06 12:42 | -27.82290 | -49.68913 | 40246 ft | 395 kts | 210° |
| 2026-05-06 12:43 | -27.87258 | -49.71565 | 40253 ft | 395 kts | 210° |
| 2026-05-06 12:43 | -27.92227 | -49.74217 | 40266 ft | 396 kts | 210° |
| 2026-05-06 12:44 | -27.97187 | -49.76864 | 40246 ft | 397 kts | 210° |
| 2026-05-06 12:44 | -28.02189 | -49.79536 | 40252 ft | 397 kts | 210° |
| 2026-05-06 12:45 | -28.07187 | -49.82209 | 40249 ft | 397 kts | 211° |
| 2026-05-06 12:46 | -28.14685 | -49.86223 | 40249 ft | 397 kts | 210° |
| 2026-05-06 12:46 | -28.19680 | -49.88902 | 40250 ft | 397 kts | 211° |
| 2026-05-06 12:47 | -28.24658 | -49.91575 | 40245 ft | 397 kts | 211° |
| 2026-05-06 12:47 | -28.29664 | -49.94264 | 40246 ft | 398 kts | 211° |
| 2026-05-06 12:48 | -28.34666 | -49.96954 | 40237 ft | 398 kts | 211° |
| 2026-05-06 12:48 | -28.39673 | -49.99649 | 40239 ft | 398 kts | 211° |
| 2026-05-06 12:49 | -28.44689 | -50.02352 | 40246 ft | 399 kts | 211° |
| 2026-05-06 12:49 | -28.49719 | -50.05056 | 40217 ft | 399 kts | 211° |
| 2026-05-06 12:50 | -28.54748 | -50.07779 | 40228 ft | 400 kts | 211° |
| 2026-05-06 12:50 | -28.59734 | -50.10475 | 39704 ft | 393 kts | 211° |
| 2026-05-06 12:50 | -28.62213 | -50.11816 | 39076 ft | 393 kts | 211° |
| 2026-05-06 12:51 | -28.64654 | -50.13139 | 38374 ft | 393 kts | 211° |
| 2026-05-06 12:51 | -28.67160 | -50.14498 | 37471 ft | 396 kts | 210° |
| 2026-05-06 12:51 | -28.69629 | -50.15839 | 36490 ft | 402 kts | 210° |
| 2026-05-06 12:51 | -28.72179 | -50.17225 | 35478 ft | 410 kts | 210° |
| 2026-05-06 12:52 | -28.74791 | -50.18626 | 34411 ft | 419 kts | 207° |
| 2026-05-06 12:52 | -28.77470 | -50.20030 | 33218 ft | 428 kts | 207° |
| 2026-05-06 12:52 | -28.80198 | -50.21442 | 32109 ft | 433 kts | 205° |
| 2026-05-06 12:52 | -28.82963 | -50.22866 | 31036 ft | 437 kts | 206° |
| 2026-05-06 12:53 | -28.85734 | -50.24329 | 29893 ft | 441 kts | 206° |
| 2026-05-06 12:53 | -28.88535 | -50.25815 | 28728 ft | 444 kts | 204° |
| 2026-05-06 12:53 | -28.91351 | -50.27283 | 27687 ft | 444 kts | 205° |
| 2026-05-06 12:53 | -28.94140 | -50.28763 | 26811 ft | 442 kts | 206° |
| 2026-05-06 12:54 | -28.96912 | -50.30258 | 26000 ft | 438 kts | 205° |
| 2026-05-06 12:54 | -28.99667 | -50.31751 | 25348 ft | 434 kts | 206° |
| 2026-05-06 12:54 | -29.02390 | -50.33231 | 25106 ft | 435 kts | 206° |
| 2026-05-06 12:54 | -29.05129 | -50.34720 | 24883 ft | 435 kts | 206° |
| 2026-05-06 12:55 | -29.07808 | -50.36175 | 24367 ft | 429 kts | 206° |
| 2026-05-06 12:55 | -29.10496 | -50.37638 | 23646 ft | 425 kts | 206° |
| 2026-05-06 12:55 | -29.13147 | -50.39086 | 22868 ft | 421 kts | 206° |
| 2026-05-06 12:55 | -29.15775 | -50.40524 | 22125 ft | 416 kts | 206° |
| 2026-05-06 12:56 | -29.18376 | -50.41946 | 21412 ft | 411 kts | 206° |
| 2026-05-06 12:56 | -29.20943 | -50.43350 | 20702 ft | 408 kts | 206° |
| 2026-05-06 12:56 | -29.23495 | -50.44748 | 19965 ft | 405 kts | 206° |
| 2026-05-06 12:56 | -29.26029 | -50.46136 | 19224 ft | 402 kts | 206° |
| 2026-05-06 12:57 | -29.28548 | -50.47519 | 18456 ft | 403 kts | 206° |
| 2026-05-06 12:57 | -29.31073 | -50.48914 | 17550 ft | 403 kts | 206° |
| 2026-05-06 12:57 | -29.33603 | -50.50316 | 16780 ft | 401 kts | 206° |
| 2026-05-06 12:57 | -29.36108 | -50.51703 | 16015 ft | 399 kts | 206° |
| 2026-05-06 12:58 | -29.38602 | -50.53082 | 15268 ft | 397 kts | 206° |
| 2026-05-06 12:58 | -29.41086 | -50.54454 | 14490 ft | 395 kts | 206° |
| 2026-05-06 12:58 | -29.43559 | -50.55819 | 13699 ft | 394 kts | 206° |
| 2026-05-06 12:58 | -29.46019 | -50.57180 | 12900 ft | 390 kts | 206° |
| 2026-05-06 12:59 | -29.48449 | -50.58525 | 12149 ft | 385 kts | 206° |
| 2026-05-06 12:59 | -29.50849 | -50.59853 | 11408 ft | 381 kts | 206° |
| 2026-05-06 12:59 | -29.53232 | -50.61173 | 10775 ft | 375 kts | 206° |
| 2026-05-06 12:59 | -29.55522 | -50.62434 | 10621 ft | 355 kts | 205° |
| 2026-05-06 13:00 | -29.57667 | -50.63586 | 10529 ft | 334 kts | 204° |
| 2026-05-06 13:00 | -29.59716 | -50.64677 | 10433 ft | 315 kts | 204° |
| 2026-05-06 13:00 | -29.61641 | -50.65717 | 10332 ft | 296 kts | 205° |
| 2026-05-06 13:00 | -29.63448 | -50.66718 | 10230 ft | 280 kts | 205° |
| 2026-05-06 13:01 | -29.65162 | -50.67684 | 10105 ft | 269 kts | 206° |
| 2026-05-06 13:01 | -29.66838 | -50.68634 | 9973 ft | 270 kts | 205° |
| 2026-05-06 13:01 | -29.68577 | -50.69606 | 9722 ft | 285 kts | 205° |
| 2026-05-06 13:01 | -29.70372 | -50.70591 | 9440 ft | 285 kts | 204° |
| 2026-05-06 13:02 | -29.72156 | -50.71598 | 8844 ft | 285 kts | 208° |
| 2026-05-06 13:02 | -29.73745 | -50.72946 | 8384 ft | 283 kts | 221° |
| 2026-05-06 13:02 | -29.75160 | -50.74496 | 8007 ft | 279 kts | 223° |
| 2026-05-06 13:02 | -29.76536 | -50.76052 | 7633 ft | 276 kts | 223° |
| 2026-05-06 13:03 | -29.77897 | -50.77599 | 7263 ft | 274 kts | 224° |
| 2026-05-06 13:03 | -29.79253 | -50.79139 | 6904 ft | 273 kts | 223° |
| 2026-05-06 13:03 | -29.80601 | -50.80670 | 6561 ft | 271 kts | 224° |
| 2026-05-06 13:03 | -29.81935 | -50.82189 | 6256 ft | 264 kts | 224° |
| 2026-05-06 13:04 | -29.83209 | -50.83648 | 6072 ft | 252 kts | 224° |
| 2026-05-06 13:04 | -29.84417 | -50.85041 | 5883 ft | 240 kts | 224° |
| 2026-05-06 13:04 | -29.85565 | -50.86373 | 5725 ft | 229 kts | 224° |
| 2026-05-06 13:04 | -29.86660 | -50.87649 | 5541 ft | 218 kts | 224° |
| 2026-05-06 13:05 | -29.87690 | -50.88848 | 5373 ft | 208 kts | 225° |
| 2026-05-06 13:05 | -29.88683 | -50.90007 | 5128 ft | 198 kts | 225° |
| 2026-05-06 13:05 | -29.89643 | -50.91112 | 4631 ft | 195 kts | 224° |
| 2026-05-06 13:05 | -29.90313 | -50.91845 | 4288 ft | 196 kts | 220° |
| 2026-05-06 13:06 | -29.91434 | -50.92668 | 3934 ft | 192 kts | 204° |
| 2026-05-06 13:06 | -29.92669 | -50.93261 | 3480 ft | 192 kts | 200° |
| 2026-05-06 13:06 | -29.93927 | -50.93812 | 2997 ft | 194 kts | 199° |
| 2026-05-06 13:06 | -29.95184 | -50.94364 | 2655 ft | 186 kts | 200° |
| 2026-05-06 13:07 | -29.96380 | -50.94902 | 2615 ft | 188 kts | 200° |
| 2026-05-06 13:07 | -29.97616 | -50.95459 | 2573 ft | 192 kts | 200° |
| 2026-05-06 13:07 | -29.98806 | -50.96159 | 2506 ft | 193 kts | 214° |
| 2026-05-06 13:07 | -29.99680 | -50.97293 | 2450 ft | 188 kts | 240° |
| 2026-05-06 13:08 | -30.00023 | -50.98709 | 2418 ft | 181 kts | 264° |
| 2026-05-06 13:08 | -30.00049 | -51.00115 | 2372 ft | 175 kts | 269° |
| 2026-05-06 13:08 | -30.00025 | -51.01514 | 2280 ft | 174 kts | 270° |
| 2026-05-06 13:08 | -29.99988 | -51.02923 | 2265 ft | 172 kts | 270° |
| 2026-05-06 13:09 | -29.99982 | -51.04267 | 2268 ft | 165 kts | 265° |
| 2026-05-06 13:09 | -30.00126 | -51.05516 | 2087 ft | 153 kts | 270° |
| 2026-05-06 13:09 | -30.00161 | -51.06718 | 1813 ft | 147 kts | 277° |
| 2026-05-06 13:09 | -30.00068 | -51.07901 | 1581 ft | 151 kts | 283° |
| 2026-05-06 13:10 | -29.99887 | -51.09067 | 1398 ft | 143 kts | 285° |
| 2026-05-06 13:10 | -29.99712 | -51.10223 | 1068 ft | 149 kts | 283° |
| 2026-05-06 13:10 | -29.99578 | -51.11464 | 635 ft | 158 kts | 276° |
| 2026-05-06 13:10 | -29.99568 | -51.12698 | 446 ft | 150 kts | 270° |
| 2026-05-06 13:11 | -29.99569 | -51.13942 | 255 ft | 150 kts | 273° |
| 2026-05-06 13:11 | -29.99499 | -51.15070 | 100 ft | 136 kts | 275° |
| 2026-05-06 13:11 | -29.99471 | -51.16091 | 28 ft | 115 kts | 270° |
| 2026-05-06 13:11 | -29.99462 | -51.16904 | 26 ft | 87 kts | 270° |
| 2026-05-06 13:12 | -29.99458 | -51.17303 | 24 ft | 10 kts | 271° |
| 2026-05-06 13:12 | -29.99457 | -51.17339 | 24 ft | 0 kts | 271° |
| 2026-05-06 13:12 | -29.99457 | -51.17340 | 24 ft | 0 kts | 271° |
| 2026-05-06 13:13 | -29.99456 | -51.17400 | 24 ft | 18 kts | 271° |
| 2026-05-06 13:13 | -29.99453 | -51.17579 | 27 ft | 28 kts | 271° |
| 2026-05-06 13:13 | -29.99451 | -51.17630 | 28 ft | 7 kts | 275° |
| 2026-05-06 13:13 | -29.99429 | -51.17689 | 28 ft | 10 kts | 316° |
| 2026-05-06 13:14 | -29.99347 | -51.17704 | 31 ft | 15 kts | 360° |
| 2026-05-06 13:14 | -29.99228 | -51.17701 | 30 ft | 18 kts | 359° |
| 2026-05-06 13:14 | -29.99162 | -51.17807 | 29 ft | 18 kts | 281° |
| 2026-05-06 13:14 | -29.99120 | -51.17938 | 29 ft | 16 kts | 289° |
| 2026-05-06 13:15 | -29.99087 | -51.18059 | 30 ft | 8 kts | 298° |
| 2026-05-06 13:15 | -29.99075 | -51.18085 | 28 ft | 0 kts | 299° |